createdAt,value
2023-02-11T00:02:31.959Z,43.03
2023-02-11T00:05:34.740Z,40.17
2023-02-11T00:08:37.838Z,41.30
2023-02-11T00:11:40.229Z,44.93
2023-02-11T00:14:42.551Z,46.58
2023-02-11T00:17:48.389Z,45.83
2023-02-11T00:20:50.741Z,42.10
2023-02-11T00:23:54.918Z,35.75
2023-02-11T00:26:57.385Z,42.22
2023-02-11T00:30:02.250Z,39.50
2023-02-11T00:33:06.355Z,39.03
2023-02-11T00:36:13.279Z,47.58
2023-02-11T00:39:15.722Z,43.20
2023-02-11T00:42:18.220Z,35.37
2023-02-11T00:45:21.400Z,44.67
2023-02-11T00:48:23.879Z,44.05
2023-02-11T00:51:28.302Z,45.03
2023-02-11T00:54:30.642Z,45.08
2023-02-11T00:57:33.272Z,44.42
2023-02-11T01:00:35.690Z,47.80
2023-02-11T01:03:38.777Z,39.37
2023-02-11T01:06:41.233Z,42.38
2023-02-11T01:09:43.602Z,42.97
2023-02-11T01:12:46.103Z,47.17
2023-02-11T01:15:48.628Z,38.25
2023-02-11T01:18:51.237Z,45.40
2023-02-11T01:21:53.612Z,43.33
2023-02-11T01:24:57.743Z,43.47
2023-02-11T01:28:00.206Z,25.30
2023-02-11T01:31:03.361Z,52.35
2023-02-11T01:34:08.360Z,46.20
2023-02-11T01:37:12.698Z,40.80
2023-02-11T01:40:17.102Z,49.63
2023-02-11T01:43:21.250Z,48.80
2023-02-11T01:46:29.487Z,43.45
2023-02-11T01:49:36.552Z,47.67
2023-02-11T01:52:41.283Z,46.88
2023-02-11T01:56:02.539Z,50.97
2023-02-11T01:59:11.738Z,60.50
2023-02-11T02:02:21.438Z,44.00
2023-02-11T02:05:38.990Z,51.40
2023-02-11T02:08:51.141Z,41.03
2023-02-11T02:11:54.177Z,44.83
2023-02-11T02:15:20.081Z,59.77
2023-02-11T02:19:07.702Z,44.72
2023-02-11T02:22:10.655Z,49.28
2023-02-11T02:25:13.015Z,60.63
2023-02-11T02:28:40.114Z,47.28
2023-02-11T02:31:54.800Z,41.92
2023-02-11T02:35:08.251Z,45.15
2023-02-11T02:38:23.842Z,60.83
2023-02-11T02:41:32.462Z,54.35
2023-02-11T02:44:34.950Z,59.75
2023-02-11T02:47:37.358Z,53.00
2023-02-11T02:50:39.826Z,57.33
2023-02-11T02:53:53.438Z,61.58
2023-02-11T02:57:12.035Z,65.35
2023-02-11T03:00:17.159Z,54.25
2023-02-11T03:03:28.669Z,57.35
2023-02-11T03:06:49.323Z,55.20
2023-02-11T03:09:58.431Z,52.43
2023-02-11T03:13:03.234Z,61.90
2023-02-11T03:16:27.023Z,58.42
2023-02-11T03:19:34.967Z,61.33
2023-02-11T03:23:05.677Z,61.55
2023-02-11T03:26:14.182Z,53.80
2023-02-11T03:29:28.442Z,58.40
2023-02-11T03:32:46.894Z,63.72
2023-02-11T03:36:09.371Z,56.42
2023-02-11T03:39:16.269Z,58.50
2023-02-11T03:42:20.238Z,53.77
2023-02-11T03:45:24.446Z,54.17
2023-02-11T03:48:33.343Z,60.00
2023-02-11T03:51:37.466Z,67.57
2023-02-11T03:54:43.361Z,63.35
2023-02-11T03:57:47.240Z,57.83
2023-02-11T04:00:49.842Z,56.17
2023-02-11T04:03:52.248Z,62.25
2023-02-11T04:06:54.549Z,43.53
2023-02-11T04:09:56.992Z,54.85
2023-02-11T04:12:59.530Z,61.87
2023-02-11T04:16:02.016Z,59.60
2023-02-11T04:19:04.945Z,48.25
2023-02-11T04:22:08.111Z,41.50
2023-02-11T04:25:10.741Z,37.83
2023-02-11T04:28:13.236Z,40.17
2023-02-11T04:31:15.982Z,61.00
2023-02-11T04:34:18.626Z,65.00
2023-02-11T04:37:21.245Z,61.75
2023-02-11T04:40:23.626Z,53.45
2023-02-11T04:43:26.081Z,56.10
2023-02-11T04:46:28.507Z,69.07
2023-02-11T04:49:30.909Z,58.05
2023-02-11T04:52:33.243Z,55.70
2023-02-11T04:55:35.611Z,55.83
2023-02-11T04:58:38.304Z,45.17
2023-02-11T05:01:40.860Z,50.40
2023-02-11T05:04:43.257Z,65.68
2023-02-11T05:07:45.814Z,59.60
2023-02-11T05:10:48.224Z,63.22
2023-02-11T05:13:51.288Z,48.07
2023-02-11T05:16:53.762Z,41.78
2023-02-11T05:19:56.170Z,39.88
2023-02-11T05:22:58.514Z,49.73
2023-02-11T05:26:01.229Z,50.95
2023-02-11T05:29:03.791Z,49.70
2023-02-11T05:32:07.350Z,55.47
2023-02-11T05:35:09.800Z,48.45
2023-02-11T05:38:12.289Z,59.55
2023-02-11T05:41:14.737Z,69.40
2023-02-11T05:44:17.155Z,57.97
2023-02-11T05:47:19.553Z,52.60
2023-02-11T05:50:22.036Z,55.90
2023-02-11T05:53:27.885Z,58.57
2023-02-11T05:56:30.224Z,59.45
2023-02-11T05:59:32.639Z,67.47
2023-02-11T06:02:35.211Z,65.90
2023-02-11T06:05:37.601Z,63.65
2023-02-11T06:08:40.334Z,60.47
2023-02-11T06:11:42.702Z,81.05
2023-02-11T06:14:45.057Z,169.50
2023-02-11T06:17:47.502Z,82.47
2023-02-11T06:20:49.948Z,107.38
2023-02-11T06:23:52.366Z,91.83
2023-02-11T06:26:54.731Z,105.57
2023-02-11T06:29:57.208Z,129.68
2023-02-11T06:32:59.570Z,131.30
2023-02-11T06:36:02.738Z,109.65
2023-02-11T06:39:05.217Z,118.45
2023-02-11T06:42:08.051Z,74.45
2023-02-11T06:45:11.192Z,58.63
2023-02-11T06:48:13.848Z,65.93
2023-02-11T06:51:17.160Z,67.28
2023-02-11T06:54:19.654Z,61.07
2023-02-11T06:57:22.081Z,59.83
2023-02-11T07:00:24.444Z,67.63
2023-02-11T07:03:26.895Z,66.40
2023-02-11T07:06:29.539Z,48.95
2023-02-11T07:09:32.297Z,51.53
2023-02-11T07:12:34.867Z,43.95
2023-02-11T07:15:38.174Z,57.47
2023-02-11T07:18:41.159Z,54.50
2023-02-11T07:21:43.577Z,56.13
2023-02-11T07:24:45.988Z,51.97
2023-02-11T07:27:50.101Z,53.17
2023-02-11T07:30:52.581Z,54.97
2023-02-11T07:33:57.758Z,55.83
2023-02-11T07:37:00.187Z,49.50
2023-02-11T07:40:03.575Z,63.03
2023-02-11T07:43:06.057Z,67.55
2023-02-11T07:46:12.169Z,78.50
2023-02-11T07:49:15.125Z,59.50
2023-02-11T07:52:17.564Z,56.17
2023-02-11T07:55:19.920Z,48.53
2023-02-11T07:58:22.294Z,54.50
2023-02-11T08:01:28.268Z,52.42
2023-02-11T08:04:30.734Z,53.92
2023-02-11T08:07:33.130Z,54.55
2023-02-11T08:10:35.429Z,60.40
2023-02-11T08:13:38.677Z,70.40
2023-02-11T08:16:41.918Z,60.10
2023-02-11T08:19:44.372Z,62.45
2023-02-11T08:22:46.760Z,88.25
2023-02-11T08:25:49.111Z,171.90
2023-02-11T08:28:53.112Z,71.85
2023-02-11T08:31:55.542Z,53.95
2023-02-11T08:34:58.005Z,56.90
2023-02-11T08:38:00.332Z,55.88
2023-02-11T08:41:02.794Z,55.25
2023-02-11T08:44:05.442Z,46.55
2023-02-11T08:47:08.204Z,59.60
2023-02-11T08:50:10.560Z,35.60
2023-02-11T08:53:13.006Z,44.95
2023-02-11T08:56:16.842Z,52.43
2023-02-11T08:59:19.805Z,45.10
2023-02-11T09:02:22.299Z,58.63
2023-02-11T09:05:24.824Z,33.58
2023-02-11T09:08:27.228Z,52.55
2023-02-11T09:11:34.946Z,52.40
2023-02-11T09:14:38.424Z,54.97
2023-02-11T09:17:40.884Z,50.63
2023-02-11T09:20:43.337Z,51.65
2023-02-11T09:23:47.904Z,56.67
2023-02-11T09:26:50.381Z,53.57
2023-02-11T09:29:52.748Z,50.30
2023-02-11T09:32:55.130Z,66.90
2023-02-11T09:36:01.427Z,46.70
2023-02-11T09:39:06.106Z,54.90
2023-02-11T09:42:24.276Z,52.70
2023-02-11T09:45:28.982Z,56.80
2023-02-11T09:48:40.131Z,52.73
2023-02-11T09:51:48.335Z,56.13
2023-02-11T09:54:58.126Z,54.10
2023-02-11T09:58:05.185Z,53.00
2023-02-11T10:01:36.377Z,50.22
2023-02-11T10:04:44.718Z,58.00
2023-02-11T10:08:01.278Z,50.90
2023-02-11T10:11:22.652Z,57.25
2023-02-11T10:14:43.926Z,43.72
2023-02-11T10:18:23.685Z,55.65
2023-02-11T10:21:52.821Z,57.73
2023-02-11T10:24:59.837Z,58.85
2023-02-11T10:28:20.270Z,57.20
2023-02-11T10:31:27.741Z,52.50
2023-02-11T10:34:30.258Z,54.40
2023-02-11T10:37:32.763Z,54.42
2023-02-11T10:40:35.210Z,57.20
2023-02-11T10:43:37.609Z,54.70
2023-02-11T10:46:40.314Z,45.63
2023-02-11T10:49:44.428Z,55.92
2023-02-11T10:52:47.014Z,58.40
2023-02-11T10:55:57.457Z,52.42
2023-02-11T10:59:05.350Z,52.08
2023-02-11T11:02:34.314Z,51.97
2023-02-11T11:05:46.633Z,52.80
2023-02-11T11:08:51.649Z,55.47
2023-02-11T11:11:54.284Z,55.60
2023-02-11T11:15:16.619Z,49.88
2023-02-11T11:18:23.371Z,54.90
2023-02-11T11:21:36.502Z,43.55
2023-02-11T11:24:45.051Z,52.40
2023-02-11T11:27:56.047Z,59.80
2023-02-11T11:30:59.785Z,47.22
2023-02-11T11:34:32.429Z,54.30
2023-02-11T11:37:39.222Z,56.00
2023-02-11T11:40:41.569Z,48.70
2023-02-11T11:43:57.233Z,55.28
2023-02-11T11:47:11.667Z,49.00
2023-02-11T11:50:39.819Z,61.15
2023-02-11T11:54:04.722Z,45.05
2023-02-11T11:57:19.330Z,56.23
2023-02-11T12:00:33.866Z,60.25
2023-02-11T12:03:58.798Z,51.95
2023-02-11T12:07:25.760Z,49.30
2023-02-11T12:10:37.030Z,50.67
2023-02-11T12:14:09.545Z,60.38
2023-02-11T12:17:47.313Z,53.28
2023-02-11T12:21:13.243Z,53.05
2023-02-11T12:24:29.566Z,51.90
2023-02-11T12:27:37.905Z,49.38
2023-02-11T12:31:04.270Z,56.50
2023-02-11T12:34:34.174Z,48.33
2023-02-11T12:38:08.383Z,59.30
2023-02-11T12:41:46.437Z,57.73
2023-02-11T12:45:13.986Z,57.25
2023-02-11T12:48:22.913Z,51.95
2023-02-11T12:51:34.812Z,50.20
2023-02-11T12:54:42.117Z,59.08
2023-02-11T12:57:48.561Z,57.08
2023-02-11T13:00:57.239Z,58.70
2023-02-11T13:04:21.789Z,66.53
2023-02-11T13:07:36.112Z,63.00
2023-02-11T13:10:41.761Z,51.75
2023-02-11T13:13:50.104Z,53.97
2023-02-11T13:16:55.183Z,57.47
2023-02-11T13:20:05.710Z,62.50
2023-02-11T13:23:15.717Z,58.80
2023-02-11T13:26:40.689Z,57.75
2023-02-11T13:30:22.349Z,59.75
2023-02-11T13:33:35.316Z,57.90
2023-02-11T13:36:37.702Z,54.77
2023-02-11T13:39:41.106Z,59.30
2023-02-11T13:42:53.956Z,55.53
2023-02-11T13:46:15.589Z,58.93
2023-02-11T13:49:21.313Z,54.97
2023-02-11T13:52:38.903Z,51.63
2023-02-11T13:55:47.997Z,53.35
2023-02-11T13:58:51.480Z,53.20
2023-02-11T14:02:14.023Z,52.55
2023-02-11T14:05:51.470Z,54.17
2023-02-11T14:09:09.201Z,57.53
2023-02-11T14:12:41.084Z,54.10
2023-02-11T14:15:46.411Z,56.20
2023-02-11T14:18:52.112Z,59.73
2023-02-11T14:22:06.079Z,62.50
2023-02-11T14:25:24.334Z,65.03
2023-02-11T14:28:34.200Z,61.33
2023-02-11T14:31:45.631Z,59.17
2023-02-11T14:35:08.563Z,70.35
2023-02-11T14:38:35.820Z,62.30
2023-02-11T14:41:51.101Z,67.67
2023-02-11T14:44:57.584Z,60.08
2023-02-11T14:48:35.225Z,71.05
2023-02-11T14:51:41.244Z,60.17
2023-02-11T14:54:45.203Z,60.47
2023-02-11T14:57:49.640Z,61.30
2023-02-11T15:01:06.545Z,64.93
2023-02-11T15:04:27.741Z,67.00
2023-02-11T15:07:30.099Z,71.32
2023-02-11T15:10:41.858Z,67.50
2023-02-11T15:13:48.133Z,62.87
2023-02-11T15:16:56.114Z,66.15
2023-02-11T15:20:01.821Z,65.18
2023-02-11T15:23:09.460Z,60.90
2023-02-11T15:26:14.139Z,63.08
2023-02-11T15:29:17.059Z,71.95
2023-02-11T15:32:22.499Z,83.30
2023-02-11T15:35:30.558Z,92.57
2023-02-11T15:38:33.212Z,67.53
2023-02-11T15:41:37.962Z,66.85
2023-02-11T15:44:41.392Z,67.77
2023-02-11T15:47:53.444Z,80.75
2023-02-11T15:51:01.100Z,62.03
2023-02-11T15:54:09.641Z,46.63
2023-02-11T15:57:12.122Z,63.72
2023-02-11T16:00:21.548Z,60.92
2023-02-11T16:03:28.851Z,57.63
2023-02-11T16:06:42.641Z,54.83
2023-02-11T16:09:45.318Z,61.30
2023-02-11T16:13:01.647Z,57.72
2023-02-11T16:16:15.547Z,59.67
2023-02-11T16:19:20.154Z,68.13
2023-02-11T16:22:28.896Z,65.13
2023-02-11T16:25:34.482Z,72.23
2023-02-11T16:28:37.727Z,88.35
2023-02-11T16:31:43.432Z,118.43
2023-02-11T16:34:47.662Z,109.45
2023-02-11T16:37:50.023Z,116.38
2023-02-11T16:40:53.072Z,65.30
2023-02-11T16:43:58.429Z,67.75
2023-02-11T16:47:05.917Z,92.33
2023-02-11T16:50:10.665Z,95.07
2023-02-11T16:53:23.850Z,69.15
2023-02-11T16:56:26.273Z,55.23
2023-02-11T16:59:29.357Z,55.40
2023-02-11T17:02:35.874Z,58.92
2023-02-11T17:05:54.297Z,57.88
2023-02-11T17:08:57.450Z,54.72
2023-02-11T17:12:00.288Z,57.20
2023-02-11T17:15:02.925Z,51.95
2023-02-11T17:18:05.727Z,56.10
2023-02-11T17:21:08.594Z,54.17
2023-02-11T17:24:12.126Z,52.67
2023-02-11T17:27:15.275Z,58.10
2023-02-11T17:30:18.210Z,58.47
2023-02-11T17:33:21.956Z,55.90
2023-02-11T17:36:24.549Z,58.40
2023-02-11T17:39:27.637Z,55.05
2023-02-11T17:42:31.279Z,58.63
2023-02-11T17:45:34.408Z,51.97
2023-02-11T17:48:38.608Z,55.73
2023-02-11T17:51:41.114Z,56.90
2023-02-11T17:54:44.078Z,51.78
2023-02-11T17:57:46.868Z,53.50
2023-02-11T18:00:50.158Z,57.08
2023-02-11T18:03:54.146Z,56.95
2023-02-11T18:06:57.769Z,57.67
2023-02-11T18:10:00.467Z,58.40
2023-02-11T18:13:03.092Z,53.53
2023-02-11T18:16:08.561Z,56.53
2023-02-11T18:19:11.822Z,56.77
2023-02-11T18:22:14.681Z,57.72
2023-02-11T18:25:18.398Z,60.08
2023-02-11T18:28:20.877Z,61.80
2023-02-11T18:31:24.941Z,58.58
2023-02-11T18:34:27.511Z,80.07
2023-02-11T18:37:30.077Z,78.00
2023-02-11T18:40:32.562Z,61.88
2023-02-11T18:43:36.166Z,54.50
2023-02-11T18:46:38.784Z,58.65
2023-02-11T18:49:41.839Z,50.77
2023-02-11T18:52:44.574Z,51.72
2023-02-11T18:55:49.307Z,55.08
2023-02-11T18:58:52.187Z,58.60
2023-02-11T19:01:55.220Z,54.85
2023-02-11T19:04:58.256Z,61.20
2023-02-11T19:08:01.255Z,59.45
2023-02-11T19:11:04.589Z,59.55
2023-02-11T19:14:10.457Z,59.53
2023-02-11T19:17:13.503Z,62.85
2023-02-11T19:20:16.926Z,70.30
2023-02-11T19:23:19.549Z,70.03
2023-02-11T19:26:28.419Z,67.50
2023-02-11T19:29:33.450Z,64.30
2023-02-11T19:32:36.083Z,72.28
2023-02-11T19:35:38.731Z,62.45
2023-02-11T19:38:43.679Z,62.92
2023-02-11T19:41:46.558Z,66.43
2023-02-11T19:44:49.313Z,59.80
2023-02-11T19:47:55.301Z,59.60
2023-02-11T19:51:06.683Z,60.80
2023-02-11T19:54:09.825Z,60.70
2023-02-11T19:57:12.445Z,55.65
2023-02-11T20:00:15.786Z,57.57
2023-02-11T20:03:18.631Z,57.03
2023-02-11T20:06:25.712Z,63.13
2023-02-11T20:09:31.165Z,72.07
2023-02-11T20:12:33.920Z,74.82
2023-02-11T20:15:36.763Z,69.30
2023-02-11T20:18:40.527Z,97.65
2023-02-11T20:21:46.694Z,95.27
2023-02-11T20:24:49.450Z,96.55
2023-02-11T20:27:51.759Z,234.52
2023-02-11T20:30:58.055Z,75.00
2023-02-11T20:34:01.721Z,76.97
2023-02-11T20:37:05.007Z,66.80
2023-02-11T20:40:08.038Z,67.30
2023-02-11T20:43:10.803Z,65.25
2023-02-11T20:46:16.357Z,68.72
2023-02-11T20:49:21.555Z,70.47
2023-02-11T20:52:24.134Z,65.07
2023-02-11T20:55:26.849Z,73.00
2023-02-11T20:58:30.366Z,74.28
2023-02-11T21:01:40.653Z,81.53
2023-02-11T21:04:43.312Z,78.07
2023-02-11T21:07:46.177Z,78.05
2023-02-11T21:10:48.846Z,79.03
2023-02-11T21:13:51.426Z,82.80
2023-02-11T21:16:54.651Z,80.32
2023-02-11T21:19:57.639Z,84.45
2023-02-11T21:23:00.305Z,81.00
2023-02-11T21:26:02.976Z,73.60
2023-02-11T21:29:07.797Z,77.93
2023-02-11T21:32:10.544Z,70.63
2023-02-11T21:35:13.233Z,78.38
2023-02-11T21:38:16.570Z,79.65
2023-02-11T21:41:25.010Z,70.75
2023-02-11T21:44:27.625Z,70.57
2023-02-11T21:47:31.564Z,60.75
2023-02-11T21:50:34.001Z,62.38
2023-02-11T21:53:36.682Z,76.30
2023-02-11T21:56:39.174Z,105.03
2023-02-11T21:59:42.226Z,95.43
2023-02-11T22:02:44.727Z,70.07
2023-02-11T22:05:48.578Z,82.70
2023-02-11T22:08:50.993Z,73.53
2023-02-11T22:11:53.778Z,78.90
2023-02-11T22:14:56.124Z,77.60
2023-02-11T22:17:58.517Z,84.07
2023-02-11T22:21:16.419Z,83.80
2023-02-11T22:24:18.881Z,91.33
2023-02-11T22:27:21.898Z,81.38
2023-02-11T22:30:24.354Z,90.82
2023-02-11T22:33:28.152Z,91.57
2023-02-11T22:36:40.151Z,96.22
2023-02-11T22:39:42.910Z,100.40
2023-02-11T22:42:45.327Z,100.85
2023-02-11T22:45:47.799Z,109.22
2023-02-11T22:48:51.010Z,88.85
2023-02-11T22:51:53.391Z,111.82
2023-02-11T22:54:55.746Z,114.50
2023-02-11T22:57:58.137Z,114.07
2023-02-11T23:01:00.593Z,106.50
2023-02-11T23:04:05.788Z,94.87
2023-02-11T23:07:08.095Z,100.18
2023-02-11T23:10:11.072Z,96.85
2023-02-11T23:13:13.543Z,93.03
2023-02-11T23:16:19.241Z,84.70
2023-02-11T23:19:21.616Z,91.20
2023-02-11T23:22:23.996Z,94.10
2023-02-11T23:25:26.461Z,97.93
2023-02-11T23:28:29.466Z,96.78
2023-02-11T23:31:37.440Z,91.07
2023-02-11T23:34:40.060Z,95.97
2023-02-11T23:37:42.430Z,86.55
2023-02-11T23:40:44.830Z,81.70
2023-02-11T23:43:55.257Z,78.95
2023-02-11T23:46:57.788Z,86.88
2023-02-11T23:50:00.266Z,79.20
2023-02-11T23:53:02.670Z,80.25
2023-02-11T23:56:15.172Z,91.03
2023-02-11T23:59:17.814Z,92.35
